createdAt,value
2017-08-25T00:02:04.288Z,16.50
2017-08-25T00:05:08.087Z,16.50
2017-08-25T00:08:17.987Z,16.40
2017-08-25T00:11:15.994Z,16.40
2017-08-25T00:14:13.908Z,16.40
2017-08-25T00:17:23.815Z,16.40
2017-08-25T00:20:21.388Z,16.40
2017-08-25T00:23:24.355Z,16.40
2017-08-25T00:26:25.945Z,16.50
2017-08-25T00:29:28.602Z,16.60
2017-08-25T00:32:26.428Z,16.60
2017-08-25T00:35:24.311Z,16.70
2017-08-25T00:38:32.864Z,16.70
2017-08-25T00:41:30.475Z,16.80
2017-08-25T00:44:29.339Z,16.60
2017-08-25T00:47:29.162Z,16.60
2017-08-25T00:53:52.797Z,16.40
2017-08-25T00:56:50.520Z,16.30
2017-08-25T01:00:03.584Z,16.30
2017-08-25T01:06:26.505Z,16.20
2017-08-25T01:09:25.180Z,16.10
2017-08-25T01:12:25.764Z,16.00
2017-08-25T01:15:24.904Z,15.90
2017-08-25T01:18:26.466Z,15.80
2017-08-25T01:24:56.979Z,15.60
2017-08-25T01:27:57.506Z,15.50
2017-08-25T01:31:00.074Z,15.50
2017-08-25T01:34:12.791Z,15.40
2017-08-25T01:37:13.429Z,15.40
2017-08-25T01:40:11.201Z,15.40
2017-08-25T01:43:14.963Z,15.40
2017-08-25T01:46:12.687Z,15.30
2017-08-25T01:49:10.415Z,15.10
2017-08-25T01:52:19.107Z,15.00
2017-08-25T01:55:36.925Z,15.00
2017-08-25T01:58:35.364Z,15.00
2017-08-25T02:01:36.230Z,15.00
2017-08-25T02:04:36.904Z,15.00
2017-08-25T02:07:36.423Z,15.00
2017-08-25T02:10:39.947Z,15.00
2017-08-25T02:13:43.639Z,15.00
2017-08-25T02:17:03.438Z,15.00
2017-08-25T02:20:01.016Z,15.20
2017-08-25T02:22:58.572Z,15.30
2017-08-25T02:26:16.333Z,15.30
2017-08-25T02:29:16.098Z,15.30
2017-08-25T02:32:19.742Z,15.30
2017-08-25T02:35:17.430Z,15.10
2017-08-25T02:38:21.551Z,15.10
2017-08-25T02:41:19.926Z,15.00
2017-08-25T02:44:17.667Z,15.00
2017-08-25T02:47:18.323Z,15.10
2017-08-25T02:50:15.958Z,15.10
2017-08-25T02:53:19.670Z,15.10
2017-08-25T02:56:23.440Z,15.00
2017-08-25T03:02:51.572Z,14.90
2017-08-25T03:05:55.278Z,14.80
2017-08-25T03:09:12.144Z,14.80
2017-08-25T03:12:12.583Z,14.80
2017-08-25T03:15:29.143Z,14.90
2017-08-25T03:18:28.798Z,14.90
2017-08-25T03:21:26.436Z,14.90
2017-08-25T03:24:37.169Z,14.80
2017-08-25T03:27:50.813Z,14.80
2017-08-25T03:30:48.361Z,14.90
2017-08-25T03:33:46.136Z,14.80
2017-08-25T03:36:46.816Z,14.90
2017-08-25T03:39:45.463Z,15.00
2017-08-25T03:42:43.956Z,15.10
2017-08-25T03:45:49.467Z,15.20
2017-08-25T03:48:51.198Z,15.10
2017-08-25T03:51:48.695Z,15.10
2017-08-25T03:54:47.364Z,15.00
2017-08-25T03:57:49.920Z,15.00
2017-08-25T04:00:47.666Z,14.90
2017-08-25T04:03:52.130Z,14.80
2017-08-25T04:06:51.746Z,14.70
2017-08-25T04:09:49.252Z,14.70
2017-08-25T04:12:48.714Z,14.70
2017-08-25T04:15:46.319Z,14.70
2017-08-25T04:19:03.980Z,14.70
2017-08-25T04:22:04.663Z,14.80
2017-08-25T04:25:08.299Z,14.70
2017-08-25T04:28:11.764Z,14.70
2017-08-25T04:31:14.291Z,14.60
2017-08-25T04:34:13.827Z,14.50
2017-08-25T04:37:19.613Z,14.50
2017-08-25T04:40:17.128Z,14.50
2017-08-25T04:43:17.604Z,14.50
2017-08-25T04:46:24.386Z,14.50
2017-08-25T04:49:22.086Z,14.60
2017-08-25T04:52:28.944Z,14.70
2017-08-25T04:55:32.745Z,14.90
2017-08-25T04:58:31.459Z,15.00
2017-08-25T05:01:28.759Z,15.10
2017-08-25T05:04:27.902Z,15.10
2017-08-25T05:07:25.029Z,15.10
2017-08-25T05:10:22.458Z,15.00
2017-08-25T05:13:24.230Z,14.90
2017-08-25T05:16:22.889Z,14.90
2017-08-25T05:19:37.542Z,14.90
2017-08-25T05:22:53.355Z,14.90
2017-08-25T05:25:54.750Z,15.00
2017-08-25T05:32:19.116Z,15.10
2017-08-25T05:35:16.872Z,15.20
2017-08-25T05:38:14.786Z,15.40
2017-08-25T05:41:12.342Z,15.60
2017-08-25T05:44:10.027Z,15.70
2017-08-25T05:47:08.626Z,15.80
2017-08-25T05:50:06.319Z,16.00
2017-08-25T05:53:04.095Z,16.10
2017-08-25T05:56:07.715Z,16.30
2017-08-25T05:59:05.426Z,16.50
2017-08-25T06:02:02.937Z,16.70
2017-08-25T06:05:00.423Z,16.80
2017-08-25T06:07:59.012Z,16.90
2017-08-25T06:11:01.653Z,17.00
2017-08-25T06:13:59.420Z,17.10
2017-08-25T06:17:03.248Z,17.30
2017-08-25T06:20:00.727Z,17.50
2017-08-25T06:23:00.653Z,17.60
2017-08-25T06:26:01.119Z,17.80
2017-08-25T06:28:58.899Z,18.00
2017-08-25T06:31:59.654Z,18.20
2017-08-25T06:34:57.275Z,18.50
2017-08-25T06:38:08.083Z,18.80
2017-08-25T06:41:06.897Z,19.00
2017-08-25T06:44:15.792Z,19.10
2017-08-25T06:47:13.828Z,19.20
2017-08-25T06:50:11.688Z,19.30
2017-08-25T06:53:28.624Z,19.50
2017-08-25T06:56:27.374Z,19.70
2017-08-25T06:59:27.035Z,19.60
2017-08-25T07:02:33.865Z,19.80
2017-08-25T07:05:33.391Z,20.10
2017-08-25T07:08:30.898Z,20.40
2017-08-25T07:11:40.396Z,20.30
2017-08-25T07:14:41.950Z,20.40
2017-08-25T07:17:39.568Z,20.60
2017-08-25T07:20:37.550Z,20.70
2017-08-25T07:23:36.391Z,20.80
2017-08-25T07:26:44.172Z,20.70
2017-08-25T07:29:48.047Z,20.40
2017-08-25T07:32:51.841Z,20.10
2017-08-25T07:39:11.564Z,20.10
2017-08-25T07:42:19.139Z,20.40
2017-08-25T07:45:17.833Z,20.70
2017-08-25T07:48:17.292Z,20.80
2017-08-25T07:51:25.219Z,20.80
2017-08-25T07:54:27.790Z,20.80
2017-08-25T07:57:27.587Z,21.00
2017-08-25T08:00:25.136Z,21.00
2017-08-25T08:03:31.951Z,21.20
2017-08-25T08:06:39.534Z,21.40
2017-08-25T08:09:38.177Z,21.60
2017-08-25T08:12:36.791Z,21.70
2017-08-25T08:15:46.529Z,21.50
2017-08-25T08:18:47.102Z,21.50
2017-08-25T08:21:45.677Z,21.50
2017-08-25T08:24:49.266Z,21.70
2017-08-25T08:27:52.834Z,21.70
2017-08-25T08:30:50.273Z,21.60
2017-08-25T08:33:54.038Z,21.90
2017-08-25T08:36:53.571Z,22.20
2017-08-25T08:39:51.171Z,22.30
2017-08-25T08:42:52.690Z,22.30
2017-08-25T08:45:56.426Z,22.30
2017-08-25T08:48:53.970Z,22.30
2017-08-25T08:51:51.614Z,22.20
2017-08-25T08:54:53.993Z,22.30
2017-08-25T08:57:54.656Z,22.40
2017-08-25T09:00:59.139Z,22.60
2017-08-25T09:03:56.692Z,23.00
2017-08-25T09:06:57.590Z,23.30
2017-08-25T09:09:59.230Z,23.80
2017-08-25T09:13:05.268Z,24.00
2017-08-25T09:16:04.844Z,24.30
2017-08-25T09:19:12.729Z,24.60
2017-08-25T09:22:19.486Z,24.70
2017-08-25T09:25:16.951Z,24.40
2017-08-25T09:28:17.507Z,24.30
2017-08-25T09:31:21.492Z,24.20
2017-08-25T09:34:18.766Z,24.20
2017-08-25T09:37:16.396Z,24.50
2017-08-25T09:40:14.026Z,24.80
2017-08-25T09:43:11.502Z,25.10
2017-08-25T09:46:08.990Z,25.20
2017-08-25T09:49:06.940Z,25.20
2017-08-25T09:52:04.584Z,25.00
2017-08-25T09:55:15.208Z,25.30
2017-08-25T09:58:12.863Z,25.20
2017-08-25T10:01:15.713Z,25.20
2017-08-25T10:04:16.397Z,25.50
2017-08-25T10:07:16.963Z,26.00
2017-08-25T10:10:21.572Z,26.00
2017-08-25T10:13:30.127Z,26.30
2017-08-25T10:16:27.536Z,26.40
2017-08-25T10:19:25.056Z,26.50
2017-08-25T10:22:22.648Z,26.50
2017-08-25T10:25:20.026Z,26.60
2017-08-25T10:28:17.682Z,26.80
2017-08-25T10:31:24.281Z,26.90
2017-08-25T10:34:27.901Z,27.20
2017-08-25T10:37:38.769Z,27.40
2017-08-25T10:40:48.191Z,27.30
2017-08-25T10:43:57.950Z,27.20
2017-08-25T10:46:56.478Z,27.10
2017-08-25T10:49:53.823Z,27.10
2017-08-25T10:52:52.538Z,27.30
2017-08-25T10:55:51.331Z,27.50
2017-08-25T10:58:58.421Z,27.80
2017-08-25T11:01:59.238Z,28.00
2017-08-25T11:04:57.170Z,27.90
2017-08-25T11:08:05.012Z,27.80
2017-08-25T11:11:04.691Z,27.70
2017-08-25T11:14:07.458Z,27.60
2017-08-25T11:17:14.526Z,27.80
2017-08-25T11:20:14.320Z,27.80
2017-08-25T11:23:19.141Z,27.80
2017-08-25T11:26:22.828Z,27.90
2017-08-25T11:29:21.362Z,28.10
2017-08-25T11:32:21.110Z,27.90
2017-08-25T11:35:18.647Z,28.00
2017-08-25T11:38:16.415Z,28.10
2017-08-25T11:41:14.114Z,28.30
2017-08-25T11:44:13.783Z,28.40
2017-08-25T11:47:11.592Z,28.00
2017-08-25T11:50:09.458Z,27.70
2017-08-25T11:53:19.128Z,27.70
2017-08-25T11:56:18.799Z,28.00
2017-08-25T11:59:21.451Z,28.30
2017-08-25T12:02:22.034Z,28.50
2017-08-25T12:05:19.607Z,28.60
2017-08-25T12:11:40.644Z,28.30
2017-08-25T12:14:41.505Z,28.30
2017-08-25T12:17:39.231Z,28.30
2017-08-25T12:20:36.850Z,28.60
2017-08-25T12:23:35.488Z,28.90
2017-08-25T12:26:32.902Z,29.10
2017-08-25T12:29:30.344Z,29.30
2017-08-25T12:32:27.998Z,29.30
2017-08-25T12:35:25.719Z,29.20
2017-08-25T12:38:23.467Z,29.30
2017-08-25T12:41:22.135Z,29.40
2017-08-25T12:44:19.854Z,29.10
2017-08-25T12:47:17.698Z,29.20
2017-08-25T12:50:15.291Z,29.50
2017-08-25T12:53:19.048Z,29.60
2017-08-25T12:56:17.519Z,29.60
2017-08-25T12:59:21.418Z,29.30
2017-08-25T13:02:21.990Z,29.20
2017-08-25T13:05:20.475Z,29.50
2017-08-25T13:08:18.064Z,29.60
2017-08-25T13:11:15.517Z,29.80
2017-08-25T13:14:13.265Z,29.90
2017-08-25T13:17:10.948Z,30.10
2017-08-25T13:20:08.306Z,30.20
2017-08-25T13:23:06.926Z,30.30
2017-08-25T13:26:06.620Z,30.20
2017-08-25T13:29:06.391Z,30.10
2017-08-25T13:32:05.099Z,30.10
2017-08-25T13:35:02.624Z,30.20
2017-08-25T13:38:00.180Z,30.30
2017-08-25T13:40:58.774Z,30.60
2017-08-25T13:43:56.194Z,30.70
2017-08-25T13:46:59.767Z,30.60
2017-08-25T13:50:00.672Z,30.50
2017-08-25T13:52:59.219Z,30.30
2017-08-25T13:55:57.161Z,30.40
2017-08-25T13:58:54.687Z,30.50
2017-08-25T14:01:52.269Z,30.40
2017-08-25T14:04:51.024Z,30.60
2017-08-25T14:07:48.749Z,30.80
2017-08-25T14:10:46.347Z,30.80
2017-08-25T14:13:45.111Z,30.80
2017-08-25T14:16:47.345Z,30.70
2017-08-25T14:19:44.394Z,30.60
2017-08-25T14:22:44.201Z,30.60
2017-08-25T14:25:54.216Z,30.50
2017-08-25T14:28:52.901Z,30.40
2017-08-25T14:31:51.895Z,30.20
2017-08-25T14:34:49.482Z,29.90
2017-08-25T14:37:47.403Z,29.90
2017-08-25T14:40:48.401Z,29.90
2017-08-25T14:43:46.077Z,29.90
2017-08-25T14:46:44.840Z,30.10
2017-08-25T14:49:42.486Z,30.20
2017-08-25T14:52:40.345Z,30.20
2017-08-25T14:55:42.988Z,30.00
2017-08-25T14:58:49.687Z,29.80
2017-08-25T15:01:50.397Z,29.90
2017-08-25T15:04:51.381Z,29.90
2017-08-25T15:07:49.118Z,30.00
2017-08-25T15:10:52.628Z,30.30
2017-08-25T15:13:58.327Z,30.70
2017-08-25T15:16:56.836Z,31.10
2017-08-25T15:19:55.448Z,31.10
2017-08-25T15:22:53.063Z,31.30
2017-08-25T15:25:52.973Z,31.30
2017-08-25T15:28:50.610Z,31.50
2017-08-25T15:31:54.003Z,31.50
2017-08-25T15:34:51.547Z,31.30
2017-08-25T15:37:52.260Z,30.70
2017-08-25T15:40:51.839Z,30.30
2017-08-25T15:43:50.380Z,30.10
2017-08-25T15:46:53.935Z,30.10
2017-08-25T15:49:51.685Z,30.10
2017-08-25T15:52:50.213Z,30.20
2017-08-25T15:55:50.971Z,30.20
2017-08-25T15:58:48.545Z,30.10
2017-08-25T16:01:46.172Z,30.00
2017-08-25T16:04:43.583Z,30.10
2017-08-25T16:07:41.402Z,30.20
2017-08-25T16:10:39.335Z,30.10
2017-08-25T16:13:38.054Z,30.00
2017-08-25T16:16:43.794Z,29.70
2017-08-25T16:19:41.671Z,29.30
2017-08-25T16:22:40.119Z,29.00
2017-08-25T16:25:38.824Z,28.70
2017-08-25T16:28:36.717Z,28.60
2017-08-25T16:31:34.244Z,28.40
2017-08-25T16:34:31.887Z,28.30
2017-08-25T16:37:30.490Z,28.00
2017-08-25T16:40:28.211Z,27.80
2017-08-25T16:43:27.937Z,27.50
2017-08-25T16:46:27.460Z,27.40
2017-08-25T16:49:28.171Z,27.30
2017-08-25T16:52:31.642Z,27.10
2017-08-25T16:55:31.531Z,27.10
2017-08-25T16:58:29.350Z,27.10
2017-08-25T17:01:26.854Z,27.20
2017-08-25T17:04:25.582Z,27.20
2017-08-25T17:07:26.346Z,27.20
2017-08-25T17:10:28.035Z,27.20
2017-08-25T17:13:27.614Z,27.00
2017-08-25T17:16:28.319Z,26.90
2017-08-25T17:19:28.879Z,26.90
2017-08-25T17:22:28.459Z,26.80
2017-08-25T17:25:26.206Z,26.70
2017-08-25T17:28:26.723Z,26.60
2017-08-25T17:31:26.283Z,26.40
2017-08-25T17:34:23.877Z,26.30
2017-08-25T17:37:21.551Z,26.20
2017-08-25T17:40:21.010Z,26.00
2017-08-25T17:43:25.632Z,25.60
2017-08-25T17:46:23.279Z,24.70
2017-08-25T17:49:25.043Z,24.00
2017-08-25T17:52:34.897Z,23.50
2017-08-25T17:58:59.726Z,22.90
2017-08-25T18:01:57.327Z,22.70
2017-08-25T18:04:56.912Z,22.50
2017-08-25T18:07:54.674Z,22.30
2017-08-25T18:10:52.348Z,22.10
2017-08-25T18:13:49.756Z,22.00
2017-08-25T18:16:47.520Z,21.80
2017-08-25T18:19:45.164Z,21.70
2017-08-25T18:22:42.892Z,21.60
2017-08-25T18:25:44.718Z,21.40
2017-08-25T18:28:45.417Z,21.30
2017-08-25T18:31:42.775Z,21.10
2017-08-25T18:34:40.388Z,21.10
2017-08-25T18:37:38.295Z,21.00
2017-08-25T18:40:35.974Z,20.80
2017-08-25T18:43:35.851Z,20.80
2017-08-25T18:46:41.627Z,20.70
2017-08-25T18:49:41.785Z,20.70
2017-08-25T18:52:39.638Z,20.50
2017-08-25T18:55:37.363Z,20.50
2017-08-25T18:58:40.972Z,20.50
2017-08-25T19:01:38.608Z,20.40
2017-08-25T19:04:36.171Z,20.30
2017-08-25T19:07:38.003Z,20.20
2017-08-25T19:10:35.752Z,20.10
2017-08-25T19:13:33.470Z,20.00
2017-08-25T19:16:32.202Z,20.00
2017-08-25T19:19:36.028Z,19.90
2017-08-25T19:22:33.874Z,19.90
2017-08-25T19:25:46.598Z,19.80
2017-08-25T19:28:44.198Z,19.70
2017-08-25T19:31:48.014Z,19.80
2017-08-25T19:34:45.662Z,19.70
2017-08-25T19:37:43.376Z,19.60
2017-08-25T19:40:45.941Z,19.60
2017-08-25T19:43:46.530Z,19.50
2017-08-25T19:46:44.948Z,19.30
2017-08-25T19:49:42.427Z,19.20
2017-08-25T19:52:42.895Z,19.00
2017-08-25T19:55:43.856Z,19.00
2017-08-25T19:58:47.836Z,19.10
2017-08-25T20:01:45.614Z,19.10
2017-08-25T20:04:43.287Z,19.10
2017-08-25T20:07:48.062Z,19.10
2017-08-25T20:10:48.782Z,19.10
2017-08-25T20:13:49.448Z,19.20
2017-08-25T20:16:47.191Z,19.10
2017-08-25T20:19:44.623Z,19.00
2017-08-25T20:22:42.282Z,18.90
2017-08-25T20:25:44.987Z,18.70
2017-08-25T20:28:42.566Z,18.60
2017-08-25T20:31:40.686Z,18.40
2017-08-25T20:34:41.405Z,18.40
2017-08-25T20:37:38.976Z,18.30
2017-08-25T20:40:40.609Z,18.40
2017-08-25T20:43:38.240Z,18.40
2017-08-25T20:46:35.890Z,18.40
2017-08-25T20:49:33.798Z,18.20
2017-08-25T20:52:31.308Z,18.30
2017-08-25T20:55:32.878Z,18.40
2017-08-25T20:58:30.596Z,18.40
2017-08-25T21:01:31.387Z,18.50
2017-08-25T21:04:30.165Z,18.40
2017-08-25T21:07:30.028Z,18.50
2017-08-25T21:10:30.691Z,18.50
2017-08-25T21:13:29.342Z,18.60
2017-08-25T21:16:28.329Z,18.60
2017-08-25T21:19:26.098Z,18.70
2017-08-25T21:22:23.795Z,18.70
2017-08-25T21:25:26.433Z,18.70
2017-08-25T21:28:24.244Z,18.70
2017-08-25T21:31:40.931Z,18.70
2017-08-25T21:34:41.455Z,18.70
2017-08-25T21:37:39.983Z,18.70
2017-08-25T21:40:37.635Z,18.60
2017-08-25T21:43:38.292Z,18.60
2017-08-25T21:46:35.934Z,18.40
2017-08-25T21:49:42.612Z,18.40
2017-08-25T21:52:40.605Z,18.40
2017-08-25T21:55:41.299Z,18.50
2017-08-25T21:58:44.834Z,18.40
2017-08-25T22:01:43.310Z,18.30
2017-08-25T22:04:40.991Z,18.20
2017-08-25T22:07:38.694Z,18.20
2017-08-25T22:10:36.423Z,18.20
2017-08-25T22:13:43.951Z,18.30
2017-08-25T22:16:42.507Z,18.30
2017-08-25T22:19:41.174Z,18.30
2017-08-25T22:22:38.915Z,18.30
2017-08-25T22:25:39.747Z,18.40
2017-08-25T22:28:43.552Z,18.30
2017-08-25T22:31:41.163Z,18.20
2017-08-25T22:34:38.823Z,18.20
2017-08-25T22:37:42.425Z,18.10
2017-08-25T22:40:40.226Z,18.10
2017-08-25T22:43:38.789Z,18.10
2017-08-25T22:46:40.526Z,18.10
2017-08-25T22:49:41.126Z,18.10
2017-08-25T22:52:39.846Z,18.00
2017-08-25T22:55:37.143Z,18.00
2017-08-25T22:58:43.720Z,17.90
2017-08-25T23:01:41.386Z,18.00
2017-08-25T23:04:41.286Z,17.90
2017-08-25T23:07:45.005Z,17.70
2017-08-25T23:10:48.703Z,17.70
2017-08-25T23:13:47.248Z,17.70
2017-08-25T23:16:47.604Z,17.80
2017-08-25T23:19:45.042Z,17.70
2017-08-25T23:22:45.778Z,17.70
2017-08-25T23:25:46.758Z,17.70
2017-08-25T23:28:44.639Z,17.70
2017-08-25T23:31:42.294Z,17.60
2017-08-25T23:34:40.021Z,17.50
2017-08-25T23:37:37.927Z,17.40
2017-08-25T23:40:36.602Z,17.30
2017-08-25T23:43:34.220Z,17.30
2017-08-25T23:46:33.887Z,17.40
2017-08-25T23:49:32.551Z,17.40
2017-08-25T23:52:30.256Z,17.50
2017-08-25T23:55:39.923Z,17.40
2017-08-25T23:58:38.588Z,17.30
